logo
Rechercher aéroport 
image banner adimage banner adimage banner ad
image banner ad

CL03 - Airport Towers Nr 1

Situé à El Segundo, United States

ICAO - CL03, IATA -

Données fournies par Airmate  

Information générale

Coordonnées: N33°55'1" W118°23'42"
Élévation : 404 feet MSL.
Variation magnétique : 14° East
Voir autres Aéroports à California

Données opérationnelles

Special qualification required
Heure actuelle UTC:
Heure actuelle locale:
Météo à : KLAX - Los Angeles Intl ( 3 km )
METAR: KLAX 011753Z 15006KT 10SM BKN024 22/14 A2990 RMK AO2 SLP121 T02170139 10217 20194 50007
TAF: KLAX 011745Z 0118/0224 10004KT P6SM OVC024 FM012000 26010KT P6SM SCT030 FM020300 24008KT P6SM OVC018 FM020600 VRB03KT P6SM OVC015 FM021000 VRB03KT P6SM OVC025 FM021900 26008KT P6SM SCT030 FM022100 26012KT P6SM SKC
Voir NOTAMs / SUP AIP / TFR affectant cet aéroport [VIEW]
Fréquences de communication: [VIEW]

Pistes:

Coordonnées de l'aéroport

Adresse: El Segundo United States

Vue satellite de CL03